Weather at Lannion-Côte de Granit Airport

Public forecast

Using degrees Celsius for public forecast. Weather courtesy of forecast.io.

Current aviation weather report (METAR) for Lannion-Côte de Granit Airport

Retrieved 2021/10/15 21:30 UTC (50 minutes ago):

LFRO 152130Z AUTO 14002KT 5000 BR FEW003 09/09 Q1022

Aviation forecast (TAF) for Lannion-Côte de Granit Airport

Forecast is more than 12 hours old.

Retrieved 2019/05/15 19:06 UTC (2 years ago):

TAF LFRO 151936Z 1519/1612 CNL